createdAt,value
2017-07-11T00:01:36.250Z,10.30
2017-07-11T00:04:02.643Z,11.83
2017-07-11T00:06:29.065Z,10.13
2017-07-11T00:08:55.473Z,12.07
2017-07-11T00:11:21.939Z,21.80
2017-07-11T00:13:48.336Z,12.70
2017-07-11T00:16:14.737Z,16.60
2017-07-11T00:18:41.145Z,11.30
2017-07-11T00:21:07.566Z,15.93
2017-07-11T00:23:33.985Z,12.30
2017-07-11T00:26:01.156Z,9.43
2017-07-11T00:28:27.573Z,16.53
2017-07-11T00:30:53.974Z,12.93
2017-07-11T00:33:20.421Z,15.40
2017-07-11T00:35:47.570Z,10.90
2017-07-11T00:38:14.721Z,16.23
2017-07-11T00:40:41.885Z,16.63
2017-07-11T00:43:09.037Z,16.53
2017-07-11T00:48:08.807Z,14.30
2017-07-11T00:50:35.216Z,14.10
2017-07-11T00:53:01.625Z,12.53
2017-07-11T00:55:28.799Z,13.30
2017-07-11T00:57:55.209Z,16.20
2017-07-11T01:00:22.388Z,15.80
2017-07-11T01:02:48.819Z,14.23
2017-07-11T01:05:15.212Z,20.83
2017-07-11T01:07:41.621Z,14.87
2017-07-11T01:10:08.020Z,14.70
2017-07-11T01:12:34.421Z,24.60
2017-07-11T01:15:01.592Z,17.10
2017-07-11T01:17:28.026Z,15.50
2017-07-11T01:19:54.419Z,18.47
2017-07-11T01:22:20.831Z,15.20
2017-07-11T01:24:47.222Z,17.07
2017-07-11T01:27:13.612Z,13.17
2017-07-11T01:29:40.028Z,16.60
2017-07-11T01:32:06.446Z,14.60
2017-07-11T01:34:32.837Z,17.07
2017-07-11T01:36:59.268Z,13.53
2017-07-11T01:39:26.416Z,14.30
2017-07-11T01:41:53.561Z,14.63
2017-07-11T01:44:20.750Z,16.87
2017-07-11T01:46:47.200Z,13.40
2017-07-11T01:49:13.653Z,16.63
2017-07-11T01:51:40.109Z,13.40
2017-07-11T01:54:07.244Z,19.00
2017-07-11T01:56:33.687Z,19.30
2017-07-11T01:59:00.170Z,17.13
2017-07-11T02:01:26.616Z,14.40
2017-07-11T02:03:53.032Z,15.03
2017-07-11T02:06:19.468Z,16.10
2017-07-11T02:08:45.903Z,13.30
2017-07-11T02:11:12.409Z,10.90
2017-07-11T02:13:38.842Z,10.63
2017-07-11T02:16:05.266Z,10.10
2017-07-11T02:18:31.657Z,7.30
2017-07-11T02:20:58.053Z,10.80
2017-07-11T02:23:24.474Z,7.13
2017-07-11T02:25:51.604Z,7.60
2017-07-11T02:28:18.755Z,5.23
2017-07-11T02:30:45.176Z,5.23
2017-07-11T02:33:11.585Z,7.43
2017-07-11T02:35:37.984Z,5.87
2017-07-11T02:38:04.381Z,5.90
2017-07-11T02:40:31.563Z,7.07
2017-07-11T02:42:57.974Z,4.27
2017-07-11T02:45:25.165Z,3.60
2017-07-11T02:47:51.574Z,5.77
2017-07-11T02:50:18.756Z,6.27
2017-07-11T02:52:45.169Z,4.80
2017-07-11T02:55:11.588Z,6.10
2017-07-11T02:57:38.020Z,4.90
2017-07-11T03:00:04.432Z,4.93
2017-07-11T03:02:31.620Z,5.63
2017-07-11T03:04:58.042Z,8.27
2017-07-11T03:07:24.424Z,5.43
2017-07-11T03:09:50.909Z,5.50
2017-07-11T03:12:18.026Z,5.33
2017-07-11T03:14:44.430Z,11.23
2017-07-11T03:17:10.840Z,9.83
2017-07-11T03:19:37.277Z,6.57
2017-07-11T03:22:03.724Z,6.13
2017-07-11T03:24:30.137Z,6.33
2017-07-11T03:26:56.539Z,5.80
2017-07-11T03:29:23.695Z,8.20
2017-07-11T03:31:50.161Z,5.37
2017-07-11T03:34:16.531Z,5.90
2017-07-11T03:36:42.939Z,8.53
2017-07-11T03:39:09.356Z,5.53
2017-07-11T03:41:35.780Z,4.93
2017-07-11T03:44:02.175Z,5.23
2017-07-11T03:46:29.379Z,6.60
2017-07-11T03:48:55.773Z,3.03
2017-07-11T03:51:22.928Z,9.07
2017-07-11T03:53:50.105Z,3.20
2017-07-11T03:56:16.505Z,2.93
2017-07-11T03:58:42.925Z,3.70
2017-07-11T04:01:10.072Z,6.60
2017-07-11T04:03:36.459Z,2.70
2017-07-11T04:06:02.896Z,2.10
2017-07-11T04:08:29.297Z,3.73
2017-07-11T04:10:55.703Z,2.63
2017-07-11T04:13:22.109Z,4.63
2017-07-11T04:15:48.581Z,2.33
2017-07-11T04:18:15.721Z,3.07
2017-07-11T04:20:42.892Z,2.27
2017-07-11T04:23:09.297Z,2.07
2017-07-11T04:25:35.697Z,3.10
2017-07-11T04:28:02.084Z,3.10
2017-07-11T04:30:28.496Z,2.20
2017-07-11T04:32:54.945Z,2.37
2017-07-11T04:35:22.106Z,2.30
2017-07-11T04:37:48.510Z,6.00
2017-07-11T04:40:14.893Z,2.43
2017-07-11T04:42:41.293Z,1.80
2017-07-11T04:45:08.488Z,2.67
2017-07-11T04:47:34.902Z,1.70
2017-07-11T04:50:01.328Z,2.67
2017-07-11T04:52:27.722Z,2.50
2017-07-11T04:54:54.164Z,3.03
2017-07-11T04:57:21.357Z,2.70
2017-07-11T04:59:47.780Z,2.40
2017-07-11T05:02:14.216Z,1.20
2017-07-11T05:04:40.646Z,3.63
2017-07-11T05:07:07.090Z,2.33
2017-07-11T05:09:33.505Z,3.73
2017-07-11T05:11:59.911Z,2.03
2017-07-11T05:14:27.065Z,2.97
2017-07-11T05:16:54.207Z,2.50
2017-07-11T05:19:20.646Z,1.67
2017-07-11T05:21:47.814Z,1.33
2017-07-11T05:24:14.218Z,1.13
2017-07-11T05:26:41.376Z,1.50
2017-07-11T05:29:07.776Z,1.30
2017-07-11T05:31:34.180Z,2.40
2017-07-11T05:34:00.606Z,1.23
2017-07-11T05:36:27.019Z,1.93
2017-07-11T05:38:53.425Z,2.50
2017-07-11T05:41:19.884Z,5.20
2017-07-11T05:43:46.301Z,4.20
2017-07-11T05:46:13.455Z,3.33
2017-07-11T05:48:40.641Z,2.63
2017-07-11T05:51:07.080Z,6.73
2017-07-11T05:53:33.516Z,2.03
2017-07-11T05:55:59.917Z,1.33
2017-07-11T05:58:27.061Z,2.37
2017-07-11T06:00:54.231Z,1.50
2017-07-11T06:03:20.673Z,3.00
2017-07-11T06:05:47.075Z,1.73
2017-07-11T06:08:14.256Z,1.67
2017-07-11T06:10:40.703Z,3.07
2017-07-11T06:13:07.129Z,2.10
2017-07-11T06:15:33.530Z,1.50
2017-07-11T06:18:00.683Z,1.70
2017-07-11T06:20:27.860Z,3.77
2017-07-11T06:22:54.294Z,1.60
2017-07-11T06:25:20.689Z,1.97
2017-07-11T06:27:47.101Z,1.90
2017-07-11T06:30:14.351Z,5.50
2017-07-11T06:32:40.776Z,1.97
2017-07-11T06:35:08.158Z,2.97
2017-07-11T06:37:35.349Z,1.70
2017-07-11T06:40:01.748Z,1.87
2017-07-11T06:42:28.900Z,1.90
2017-07-11T06:44:56.054Z,1.60
2017-07-11T06:47:23.237Z,2.07
2017-07-11T06:49:49.676Z,1.67
2017-07-11T06:52:16.105Z,2.00
2017-07-11T06:54:42.524Z,2.53
2017-07-11T06:57:08.958Z,2.13
2017-07-11T06:59:35.360Z,6.20
2017-07-11T07:02:02.530Z,1.43
2017-07-11T07:04:29.676Z,1.87
2017-07-11T07:06:56.090Z,1.23
2017-07-11T07:09:22.495Z,2.07
2017-07-11T07:11:48.906Z,3.10
2017-07-11T07:14:15.339Z,1.00
2017-07-11T07:16:41.751Z,11.70
2017-07-11T07:19:08.184Z,1.07
2017-07-11T07:21:34.604Z,1.63
2017-07-11T07:24:01.748Z,6.93
2017-07-11T07:26:28.909Z,1.43
2017-07-11T07:28:55.349Z,2.43
2017-07-11T07:31:21.793Z,0.87
2017-07-11T07:33:48.206Z,1.07
2017-07-11T07:36:14.655Z,1.20
2017-07-11T07:38:41.091Z,1.90
2017-07-11T07:41:07.494Z,1.17
2017-07-11T07:43:34.667Z,1.27
2017-07-11T07:46:01.104Z,1.20
2017-07-11T07:48:27.506Z,1.67
2017-07-11T07:50:54.658Z,8.73
2017-07-11T07:53:21.860Z,1.00
2017-07-11T07:55:48.264Z,2.87
2017-07-11T07:58:14.667Z,3.40
2017-07-11T08:00:41.837Z,4.10
2017-07-11T08:03:08.297Z,1.93
2017-07-11T08:05:34.697Z,2.70
2017-07-11T08:08:01.857Z,1.50
2017-07-11T08:10:29.016Z,4.53
2017-07-11T08:12:55.438Z,2.80
2017-07-11T08:15:22.609Z,1.47
2017-07-11T08:17:49.069Z,3.53
2017-07-11T08:20:15.480Z,7.80
2017-07-11T08:22:41.909Z,6.73
2017-07-11T08:25:08.306Z,3.30
2017-07-11T08:27:35.860Z,1.53
2017-07-11T08:30:03.049Z,1.80
2017-07-11T08:32:29.481Z,1.20
2017-07-11T08:34:55.932Z,1.93
2017-07-11T08:37:22.355Z,1.73
2017-07-11T08:39:48.788Z,2.57
2017-07-11T08:42:15.229Z,1.50
2017-07-11T08:44:41.657Z,3.27
2017-07-11T08:47:08.076Z,9.47
2017-07-11T08:49:34.495Z,2.03
2017-07-11T08:52:00.915Z,8.67
2017-07-11T08:54:28.073Z,1.77
2017-07-11T08:56:55.225Z,2.37
2017-07-11T08:59:21.638Z,2.00
2017-07-11T09:01:48.042Z,1.40
2017-07-11T09:04:14.452Z,2.03
2017-07-11T09:06:40.881Z,1.50
2017-07-11T09:09:07.337Z,1.57
2017-07-11T09:11:33.810Z,1.63
2017-07-11T09:14:00.978Z,2.03
2017-07-11T09:16:27.384Z,1.30
2017-07-11T09:18:53.808Z,1.67
2017-07-11T09:21:20.262Z,2.93
2017-07-11T09:23:47.399Z,2.60
2017-07-11T09:26:14.598Z,2.93
2017-07-11T09:28:41.043Z,1.90
2017-07-11T09:31:07.443Z,2.77
2017-07-11T09:33:34.616Z,6.17
2017-07-11T09:36:01.008Z,1.50
2017-07-11T09:38:27.427Z,3.33
2017-07-11T09:40:53.835Z,1.70
2017-07-11T09:43:20.225Z,7.43
2017-07-11T09:45:47.392Z,1.30
2017-07-11T09:48:13.808Z,5.53
2017-07-11T09:50:40.974Z,1.87
2017-07-11T09:53:07.388Z,1.80
2017-07-11T09:55:34.570Z,3.07
2017-07-11T09:58:00.974Z,7.27
2017-07-11T10:00:27.413Z,1.20
2017-07-11T10:02:53.806Z,1.37
2017-07-11T10:05:20.202Z,3.90
2017-07-11T10:07:46.634Z,4.07
2017-07-11T10:10:13.051Z,2.23
2017-07-11T10:12:39.476Z,1.47
2017-07-11T10:15:06.667Z,2.63
2017-07-11T10:17:33.103Z,1.57
2017-07-11T10:19:59.532Z,7.33
2017-07-11T10:22:25.968Z,1.10
2017-07-11T10:24:52.381Z,3.40
2017-07-11T10:27:18.808Z,2.00
2017-07-11T10:29:45.248Z,5.70
2017-07-11T10:32:11.635Z,4.83
2017-07-11T10:34:38.101Z,3.10
2017-07-11T10:37:04.543Z,1.30
2017-07-11T10:39:30.979Z,0.90
2017-07-11T10:41:57.389Z,1.10
2017-07-11T10:44:24.596Z,1.07
2017-07-11T10:46:51.010Z,1.00
2017-07-11T10:49:17.429Z,2.03
2017-07-11T10:51:43.828Z,1.00
2017-07-11T10:54:11.005Z,1.90
2017-07-11T10:56:37.406Z,2.87
2017-07-11T10:59:04.546Z,1.20
2017-07-11T11:01:30.957Z,0.90
2017-07-11T11:03:57.405Z,1.30
2017-07-11T11:06:23.817Z,1.00
2017-07-11T11:08:50.217Z,2.83
2017-07-11T11:11:16.632Z,6.77
2017-07-11T11:13:43.044Z,1.00
2017-07-11T11:16:09.467Z,3.37
2017-07-11T11:18:35.924Z,1.20
2017-07-11T11:21:03.095Z,1.10
2017-07-11T11:23:39.852Z,2.20
2017-07-11T11:26:09.933Z,1.13
2017-07-11T11:28:37.950Z,2.37
2017-07-11T11:31:04.363Z,1.90
2017-07-11T11:33:32.874Z,1.30
2017-07-11T11:36:01.315Z,4.00
2017-07-11T11:38:30.459Z,1.00
2017-07-11T11:40:56.860Z,0.90
2017-07-11T11:43:25.269Z,1.00
2017-07-11T11:45:52.978Z,1.10
2017-07-11T11:48:21.263Z,0.87
2017-07-11T11:50:48.504Z,2.33
2017-07-11T11:56:08.529Z,2.63
2017-07-11T11:58:36.581Z,1.70
2017-07-11T12:01:02.977Z,1.43
2017-07-11T12:03:29.403Z,0.87
2017-07-11T12:05:55.861Z,0.80
2017-07-11T12:08:22.311Z,1.23
2017-07-11T12:10:48.740Z,3.63
2017-07-11T12:13:15.177Z,1.10
2017-07-11T12:15:41.613Z,2.60
2017-07-11T12:18:08.020Z,0.90
2017-07-11T12:20:34.418Z,5.23
2017-07-11T12:23:03.706Z,1.60
2017-07-11T12:25:30.851Z,1.07
2017-07-11T12:27:57.992Z,2.93
2017-07-11T12:30:24.454Z,2.40
2017-07-11T12:32:50.900Z,1.30
2017-07-11T12:35:17.329Z,1.83
2017-07-11T12:37:43.768Z,1.10
2017-07-11T12:40:10.239Z,3.23
2017-07-11T12:42:36.671Z,1.83
2017-07-11T12:45:03.072Z,1.70
2017-07-11T12:47:29.530Z,1.00
2017-07-11T12:49:55.951Z,0.93
2017-07-11T12:52:22.397Z,2.73
2017-07-11T12:54:48.811Z,1.90
2017-07-11T12:57:30.161Z,1.00
2017-07-11T12:59:57.317Z,1.30
2017-07-11T13:02:23.720Z,1.00
2017-07-11T13:04:50.147Z,1.47
2017-07-11T13:07:16.571Z,0.97
2017-07-11T13:09:43.015Z,2.43
2017-07-11T13:12:09.424Z,3.03
2017-07-11T13:14:35.848Z,1.63
2017-07-11T13:17:02.285Z,1.27
2017-07-11T13:19:28.691Z,5.33
2017-07-11T13:21:55.127Z,1.30
2017-07-11T13:24:21.580Z,3.47
2017-07-11T13:26:48.165Z,4.40
2017-07-11T13:29:14.597Z,1.13
2017-07-11T13:31:41.022Z,4.60
2017-07-11T13:34:07.469Z,1.87
2017-07-11T13:36:34.631Z,2.73
2017-07-11T13:39:01.875Z,3.27
2017-07-11T13:41:29.061Z,1.30
2017-07-11T13:43:55.486Z,3.90
2017-07-11T13:46:21.902Z,1.63
2017-07-11T13:48:49.047Z,1.70
2017-07-11T13:51:16.295Z,1.27
2017-07-11T13:53:43.478Z,1.67
2017-07-11T13:56:09.893Z,3.50
2017-07-11T13:58:37.044Z,1.13
2017-07-11T14:01:04.208Z,3.00
2017-07-11T14:03:30.618Z,1.13
2017-07-11T14:05:57.054Z,1.80
2017-07-11T14:08:24.212Z,1.67
2017-07-11T14:10:51.369Z,1.33
2017-07-11T14:13:17.765Z,2.37
2017-07-11T14:15:44.180Z,1.20
2017-07-11T14:18:10.624Z,1.50
2017-07-11T14:20:37.018Z,3.67
2017-07-11T14:23:03.444Z,3.53
2017-07-11T14:25:29.889Z,1.13
2017-07-11T14:27:56.296Z,1.47
2017-07-11T14:30:23.440Z,2.20
2017-07-11T14:32:49.929Z,2.57
2017-07-11T14:35:16.396Z,4.70
2017-07-11T14:37:43.625Z,1.30
2017-07-11T14:40:10.036Z,1.67
2017-07-11T14:42:36.470Z,6.60
2017-07-11T14:45:03.457Z,1.30
2017-07-11T14:47:30.631Z,1.07
2017-07-11T14:49:57.052Z,3.17
2017-07-11T14:52:24.198Z,1.20
2017-07-11T14:54:51.359Z,3.60
2017-07-11T14:57:17.773Z,1.20
2017-07-11T14:59:44.905Z,3.43
2017-07-11T15:02:11.317Z,1.27
2017-07-11T15:04:37.695Z,2.80
2017-07-11T15:07:04.832Z,2.63
2017-07-11T15:09:31.262Z,1.20
2017-07-11T15:11:58.606Z,1.33
2017-07-11T15:14:24.981Z,1.63
2017-07-11T15:16:51.383Z,1.47
2017-07-11T15:19:17.789Z,1.87
2017-07-11T15:21:44.199Z,4.40
2017-07-11T15:24:10.605Z,1.60
2017-07-11T15:26:37.017Z,2.70
2017-07-11T15:29:03.447Z,3.10
2017-07-11T15:31:29.843Z,2.20
2017-07-11T15:33:56.251Z,4.00
2017-07-11T15:36:22.662Z,1.30
2017-07-11T15:38:49.100Z,2.20
2017-07-11T15:41:15.494Z,1.63
2017-07-11T15:43:41.909Z,1.73
2017-07-11T15:46:08.317Z,3.70
2017-07-11T15:48:34.755Z,1.13
2017-07-11T15:51:01.166Z,5.43
2017-07-11T15:53:28.337Z,1.67
2017-07-11T15:55:54.733Z,3.80
2017-07-11T15:58:21.129Z,1.30
2017-07-11T16:00:47.527Z,2.00
2017-07-11T16:03:13.933Z,4.77
2017-07-11T16:05:41.077Z,1.53
2017-07-11T16:08:07.486Z,2.87
2017-07-11T16:10:33.879Z,3.60
2017-07-11T16:13:00.277Z,1.20
2017-07-11T16:15:26.672Z,1.83
2017-07-11T16:17:53.087Z,1.23
2017-07-11T16:20:19.487Z,1.93
2017-07-11T16:22:46.620Z,1.30
2017-07-11T16:25:13.030Z,3.13
2017-07-11T16:27:39.436Z,2.07
2017-07-11T16:30:05.835Z,3.80
2017-07-11T16:32:32.991Z,1.43
2017-07-11T16:35:00.160Z,1.40
2017-07-11T16:37:26.564Z,1.50
2017-07-11T16:39:53.729Z,1.40
2017-07-11T16:42:20.124Z,7.53
2017-07-11T16:44:46.522Z,2.83
2017-07-11T16:47:12.946Z,2.30
2017-07-11T16:49:39.349Z,1.90
2017-07-11T16:52:05.805Z,1.40
2017-07-11T16:54:32.244Z,2.00
2017-07-11T16:56:58.642Z,1.20
2017-07-11T16:59:25.801Z,1.00
2017-07-11T17:01:53.328Z,1.77
2017-07-11T17:04:20.496Z,4.50
2017-07-11T17:06:47.665Z,1.53
2017-07-11T17:09:14.094Z,5.60
2017-07-11T17:11:41.235Z,1.17
2017-07-11T17:14:08.387Z,1.43
2017-07-11T17:16:35.515Z,2.80
2017-07-11T17:19:01.945Z,1.53
2017-07-11T17:21:28.357Z,3.23
2017-07-11T17:23:54.766Z,1.50
2017-07-11T17:26:21.204Z,1.50
2017-07-11T17:29:02.565Z,1.73
2017-07-11T17:31:29.694Z,1.67
2017-07-11T17:33:56.849Z,3.63
2017-07-11T17:36:24.021Z,1.57
2017-07-11T17:38:50.426Z,2.30
2017-07-11T17:41:16.867Z,1.57
2017-07-11T17:43:44.052Z,6.80
2017-07-11T17:46:10.436Z,2.60
2017-07-11T17:48:36.845Z,1.03
2017-07-11T17:51:03.256Z,1.30
2017-07-11T17:53:29.681Z,2.10
2017-07-11T17:55:56.112Z,2.60
2017-07-11T17:58:22.534Z,2.40
2017-07-11T18:00:48.944Z,1.67
2017-07-11T18:03:15.376Z,1.30
2017-07-11T18:05:42.528Z,1.30
2017-07-11T18:08:08.922Z,1.60
2017-07-11T18:10:35.324Z,1.90
2017-07-11T18:13:01.731Z,2.30
2017-07-11T18:15:28.887Z,2.40
2017-07-11T18:17:56.192Z,2.60
2017-07-11T18:20:22.600Z,1.20
2017-07-11T18:22:48.990Z,2.47
2017-07-11T18:25:15.422Z,4.53
2017-07-11T18:27:42.817Z,2.07
2017-07-11T18:30:09.225Z,3.17
2017-07-11T18:32:36.363Z,2.27
2017-07-11T18:35:03.520Z,1.93
2017-07-11T18:37:30.675Z,2.83
2017-07-11T18:39:57.105Z,2.47
2017-07-11T18:42:24.261Z,17.90
2017-07-11T18:44:51.392Z,3.03
2017-07-11T18:47:17.826Z,4.70
2017-07-11T18:49:44.270Z,2.90
2017-07-11T18:52:11.417Z,2.40
2017-07-11T18:54:37.847Z,1.50
2017-07-11T18:57:05.037Z,2.30
2017-07-11T18:59:31.457Z,1.60
2017-07-11T19:01:57.879Z,2.20
2017-07-11T19:04:25.054Z,1.40
2017-07-11T19:06:51.532Z,1.30
2017-07-11T19:09:17.924Z,3.13
2017-07-11T19:11:44.346Z,3.57
2017-07-11T19:14:11.712Z,1.83
2017-07-11T19:16:38.105Z,2.10
2017-07-11T19:19:04.532Z,7.60
2017-07-11T19:21:31.696Z,1.57
2017-07-11T19:23:58.143Z,1.40
2017-07-11T19:26:24.557Z,1.57
2017-07-11T19:28:51.894Z,5.53
2017-07-11T19:31:18.360Z,3.23
2017-07-11T19:33:44.776Z,1.50
2017-07-11T19:36:12.688Z,1.70
2017-07-11T19:38:39.475Z,4.10
2017-07-11T19:41:06.641Z,3.47
2017-07-11T19:43:33.791Z,1.27
2017-07-11T19:46:00.933Z,2.93
2017-07-11T19:48:28.110Z,2.70
2017-07-11T19:50:54.631Z,1.50
2017-07-11T19:53:21.776Z,1.50
2017-07-11T19:55:48.912Z,4.47
2017-07-11T19:58:15.359Z,1.87
2017-07-11T20:00:42.555Z,2.30
2017-07-11T20:03:08.977Z,2.17
2017-07-11T20:05:35.382Z,2.57
2017-07-11T20:08:01.813Z,9.50
2017-07-11T20:10:28.244Z,2.50
2017-07-11T20:12:55.426Z,1.60
2017-07-11T20:15:21.869Z,3.20
2017-07-11T20:17:48.242Z,2.67
2017-07-11T20:20:14.663Z,1.90
2017-07-11T20:22:41.122Z,3.00
2017-07-11T20:25:08.279Z,2.87
2017-07-11T20:27:35.428Z,2.80
2017-07-11T20:30:02.628Z,4.33
2017-07-11T20:32:29.068Z,2.90
2017-07-11T20:34:55.455Z,2.43
2017-07-11T20:37:21.874Z,2.10
2017-07-11T20:39:49.040Z,1.63
2017-07-11T20:42:16.207Z,4.20
2017-07-11T20:44:42.600Z,2.10
2017-07-11T20:47:08.994Z,1.70
2017-07-11T20:49:35.389Z,2.10
2017-07-11T20:52:01.836Z,2.43
2017-07-11T20:54:28.250Z,1.93
2017-07-11T20:56:54.673Z,2.63
2017-07-11T20:59:21.856Z,5.50
2017-07-11T21:01:48.650Z,3.83
2017-07-11T21:04:15.036Z,1.67
2017-07-11T21:06:41.493Z,2.53
2017-07-11T21:09:07.953Z,2.60
2017-07-11T21:11:34.364Z,2.67
2017-07-11T21:14:00.791Z,3.90
2017-07-11T21:16:27.257Z,6.03
2017-07-11T21:18:54.436Z,1.77
2017-07-11T21:21:20.825Z,1.83
2017-07-11T21:23:47.243Z,2.43
2017-07-11T21:26:14.633Z,1.87
2017-07-11T21:28:41.814Z,2.07
2017-07-11T21:31:08.208Z,2.30
2017-07-11T21:33:34.601Z,2.53
2017-07-11T21:36:01.016Z,7.10
2017-07-11T21:38:27.448Z,4.23
2017-07-11T21:40:53.874Z,3.47
2017-07-11T21:43:20.867Z,2.37
2017-07-11T21:45:47.261Z,6.10
2017-07-11T21:48:14.609Z,3.13
2017-07-11T21:50:41.016Z,2.20
2017-07-11T21:53:08.188Z,5.20
2017-07-11T21:55:34.606Z,2.20
2017-07-11T21:58:01.775Z,2.47
2017-07-11T22:00:28.221Z,2.40
2017-07-11T22:02:54.621Z,2.60
2017-07-11T22:05:21.757Z,2.43
2017-07-11T22:07:48.209Z,2.50
2017-07-11T22:10:14.927Z,2.47
2017-07-11T22:12:47.912Z,2.90
2017-07-11T22:15:14.309Z,2.53
2017-07-11T22:17:40.736Z,2.27
2017-07-11T22:20:07.120Z,2.10
2017-07-11T22:22:34.300Z,3.23
2017-07-11T22:25:00.733Z,2.90
2017-07-11T22:27:27.950Z,2.20
2017-07-11T22:29:54.354Z,3.90
2017-07-11T22:32:20.781Z,2.70
2017-07-11T22:34:47.223Z,5.20
2017-07-11T22:37:13.658Z,2.70
2017-07-11T22:39:40.062Z,7.03
2017-07-11T22:42:06.543Z,3.10
2017-07-11T22:44:32.956Z,2.47
2017-07-11T22:46:59.384Z,2.13
2017-07-11T22:49:25.780Z,3.80
2017-07-11T22:51:52.173Z,2.67
2017-07-11T22:54:18.603Z,2.70
2017-07-11T22:56:45.100Z,2.60
2017-07-11T22:59:11.492Z,4.43
2017-07-11T23:01:38.648Z,3.10
2017-07-11T23:04:05.072Z,1.83
2017-07-11T23:06:32.214Z,2.40
2017-07-11T23:08:59.357Z,12.60
2017-07-11T23:11:26.793Z,4.00
2017-07-11T23:13:53.218Z,6.80
2017-07-11T23:16:19.786Z,4.77
2017-07-11T23:18:46.213Z,2.47
2017-07-11T23:21:12.615Z,4.07
2017-07-11T23:23:39.003Z,2.93
2017-07-11T23:26:06.160Z,5.30
2017-07-11T23:28:32.573Z,7.60
2017-07-11T23:30:59.737Z,4.07
2017-07-11T23:33:27.003Z,3.20
2017-07-11T23:35:53.432Z,5.30
2017-07-11T23:38:19.878Z,3.83
2017-07-11T23:40:46.284Z,4.70
2017-07-11T23:43:13.459Z,3.70
2017-07-11T23:45:39.889Z,3.10
2017-07-11T23:48:06.323Z,3.97
2017-07-11T23:50:32.723Z,5.87
2017-07-11T23:52:59.886Z,3.70
2017-07-11T23:55:27.051Z,5.77
2017-07-11T23:57:53.451Z,3.37
